Flight Track Log - Related Links

Times and Time Zones

All times are in EDT time to prevent confusion due to time zone crossing. See the N8387Z flight status page for this flight to view local times or setup timezone preferences in your user account.

Time Position Orientation Groundspeed Altitude Reporting Facility
EDT Latitude Longitude Course Direction KTS MPH feet Rate Location/Type
Tue 09:58:44 AM 38.5333 -90.1167 159° South 100 115 1,800  Level Gateway (St. Louis) TRACON
Tue 09:59:50 AM 38.5000 -90.1000 159° South 108 124 2,500 511 Climbing Gateway (St. Louis) TRACON
Tue 10:00:18 AM 38.4889 -90.0939 157° South 105 121 2,600 533 Climbing Kansas City Center
Tue 10:01:20 AM 38.4494 -90.0928 179° South 112 129 3,300 677 Climbing Kansas City Center
Tue 10:02:22 AM 38.4161 -90.0936 181° South 117 135 4,000 677 Climbing Kansas City Center
Tue 10:03:24 AM 38.3839 -90.1000 189° South 117 135 4,700 774 Climbing Kansas City Center
Tue 10:04:26 AM 38.3531 -90.1064 189° South 115 132 5,600 629 Climbing Kansas City Center
Tue 10:05:28 AM 38.3189 -90.1111 186° South 117 135 6,000 194 Climbing Kansas City Center
Tue 10:06:30 AM 38.2789 -90.1164 186° South 129 148 6,000  Level Kansas City Center
Tue 10:07:32 AM 38.2250 -90.1225 185° South 148 170 6,000 -48 Level Kansas City Center
Tue 10:08:34 AM 38.1811 -90.1303 188° South 156 180 5,900 -48 Descending Kansas City Center
Tue 10:09:36 AM 38.1361 -90.1408 190° South 160 184 5,900 48 Level Kansas City Center
Tue 10:10:38 AM 38.0919 -90.1436 183° South 160 184 6,000 48 Climbing Kansas City Center
Tue 10:11:40 AM 38.0469 -90.1461 183° South 162 186 6,000  Level Kansas City Center
Tue 10:12:42 AM 38.0025 -90.1525 186° South 161 185 6,000  Level Kansas City Center
Tue 10:13:44 AM 37.9492 -90.1606 187° South 160 184 6,000  Level Kansas City Center
Tue 10:14:46 AM 37.9042 -90.1650 184° South 162 186 6,000  Level Kansas City Center
Tue 10:15:48 AM 37.8594 -90.1722 187° South 162 186 6,000  Level Kansas City Center
Tue 10:16:50 AM 37.8133 -90.1822 190° South 166 191 6,000  Level Kansas City Center
Tue 10:17:52 AM 37.7678 -90.1900 188° South 165 190 6,000  Level Kansas City Center
Tue 10:18:54 AM 37.7239 -90.1942 184° South 160 184 6,000  Level Kansas City Center
Tue 10:19:56 AM 37.6697 -90.2003 185° South 162 186 6,000  Level Kansas City Center
Tue 10:20:58 AM 37.6264 -90.2056 186° South 158 182 6,000  Level Kansas City Center
Tue 10:22:00 AM 37.5814 -90.2147 189° South 162 186 6,000  Level Kansas City Center
Tue 10:23:02 AM 37.5364 -90.2206 186° South 162 186 6,000  Level Kansas City Center
Tue 10:24:04 AM 37.4922 -90.2242 184° South 160 184 6,000  Level Kansas City Center
Tue 10:25:06 AM 37.4458 -90.2306 186° South 164 189 6,000  Level Kansas City Center
Tue 10:26:08 AM 37.3914 -90.2400 188° South 165 190 6,000 -70 Level Kansas City Center
Tue 10:26:32 AM 37.3714 -90.2447 191° South 178 205 5,900 -71 Descending Memphis Center
Tue 10:27:32 AM 37.3278 -90.2472 183° South 178 205 5,900  Level Memphis Center
Tue 10:28:32 AM 37.2819 -90.2525 185° South 178 205 5,900 -220 Level Memphis Center
Tue 10:30:16 AM 37.2000 -90.2697 190° South 175 201 5,300 -346 Descending Kansas City Center

Login

Don't have an account? Register now (free) for customized features, flight alerts, and more!